createdAt,value
2018-05-04T00:00:38.097Z,16.17
2018-05-04T00:03:04.785Z,16.37
2018-05-04T00:05:31.490Z,15.93
2018-05-04T00:07:58.142Z,14.80
2018-05-04T00:10:28.458Z,16.20
2018-05-04T00:12:55.157Z,14.57
2018-05-04T00:15:21.711Z,16.27
2018-05-04T00:17:48.386Z,16.27
2018-05-04T00:20:19.004Z,17.03
2018-05-04T00:22:45.819Z,16.33
2018-05-04T00:25:12.445Z,16.43
2018-05-04T00:27:39.074Z,16.43
2018-05-04T00:30:12.256Z,16.17
2018-05-04T00:32:38.946Z,16.50
2018-05-04T00:35:05.710Z,16.63
2018-05-04T00:37:32.514Z,16.23
2018-05-04T00:40:00.612Z,16.80
2018-05-04T00:42:27.250Z,16.57
2018-05-04T00:44:54.252Z,17.37
2018-05-04T00:47:20.872Z,17.50
2018-05-04T00:49:47.768Z,17.00
2018-05-04T00:52:14.840Z,17.63
2018-05-04T00:54:41.524Z,17.37
2018-05-04T00:57:08.144Z,17.03
2018-05-04T00:59:34.859Z,16.83
2018-05-04T01:02:01.344Z,16.93
2018-05-04T01:04:28.026Z,16.07
2018-05-04T01:06:54.759Z,16.00
2018-05-04T01:09:24.660Z,17.83
2018-05-04T01:11:51.187Z,17.03
2018-05-04T01:14:18.187Z,16.70
2018-05-04T01:16:44.942Z,15.57
2018-05-04T01:19:13.039Z,15.77
2018-05-04T01:21:39.685Z,15.97
2018-05-04T01:24:06.268Z,15.57
2018-05-04T01:26:32.950Z,17.07
2018-05-04T01:29:02.859Z,17.13
2018-05-04T01:31:29.571Z,17.17
2018-05-04T01:33:56.334Z,16.83
2018-05-04T01:36:22.960Z,16.23
2018-05-04T01:38:50.887Z,15.77
2018-05-04T01:41:17.845Z,15.70
2018-05-04T01:43:44.538Z,15.73
2018-05-04T01:46:11.479Z,15.60
2018-05-04T01:48:43.402Z,16.30
2018-05-04T01:51:09.988Z,14.67
2018-05-04T01:53:36.622Z,14.70
2018-05-04T01:56:03.206Z,14.50
2018-05-04T01:58:40.388Z,14.27
2018-05-04T02:01:06.998Z,13.23
2018-05-04T02:03:33.649Z,12.40
2018-05-04T02:06:00.261Z,12.53
2018-05-04T02:08:27.952Z,11.90
2018-05-04T02:10:54.581Z,12.40
2018-05-04T02:13:21.226Z,10.83
2018-05-04T02:15:47.798Z,10.30
2018-05-04T02:18:14.505Z,11.43
2018-05-04T02:20:41.457Z,11.27
2018-05-04T02:23:08.093Z,11.80
2018-05-04T02:25:34.682Z,12.17
2018-05-04T02:28:01.352Z,10.70
2018-05-04T02:30:31.359Z,11.80
2018-05-04T02:32:57.948Z,13.07
2018-05-04T02:35:24.529Z,12.50
2018-05-04T02:37:51.230Z,12.03
2018-05-04T02:40:21.643Z,12.67
2018-05-04T02:42:48.233Z,12.13
2018-05-04T02:45:14.789Z,12.33
2018-05-04T02:47:41.750Z,14.00
2018-05-04T02:50:11.964Z,13.73
2018-05-04T02:52:38.982Z,15.93
2018-05-04T02:55:06.233Z,16.80
2018-05-04T02:57:32.977Z,16.63
2018-05-04T02:59:59.849Z,17.33
2018-05-04T03:02:26.670Z,17.27
2018-05-04T03:04:53.705Z,17.17
2018-05-04T03:07:20.661Z,17.97
2018-05-04T03:09:52.594Z,19.63
2018-05-04T03:12:19.325Z,19.30
2018-05-04T03:14:46.029Z,21.33
2018-05-04T03:17:12.517Z,22.27
2018-05-04T03:19:44.931Z,20.43
2018-05-04T03:22:11.433Z,20.93
2018-05-04T03:24:37.996Z,20.97
2018-05-04T03:27:04.913Z,21.83
2018-05-04T03:29:39.221Z,20.37
2018-05-04T03:32:05.949Z,20.30
2018-05-04T03:34:32.461Z,21.60
2018-05-04T03:36:59.037Z,22.23
2018-05-04T03:39:30.010Z,22.83
2018-05-04T03:41:56.649Z,22.47
2018-05-04T03:44:24.278Z,22.37
2018-05-04T03:46:51.374Z,20.07
2018-05-04T03:49:21.729Z,22.30
2018-05-04T03:51:48.317Z,21.40
2018-05-04T03:54:15.010Z,21.27
2018-05-04T03:56:41.708Z,20.73
2018-05-04T03:59:21.147Z,22.60
2018-05-04T04:01:59.806Z,20.40
2018-05-04T04:04:26.472Z,21.77
2018-05-04T04:06:53.205Z,20.60
2018-05-04T04:09:20.070Z,20.73
2018-05-04T04:11:46.633Z,22.60
2018-05-04T04:14:13.287Z,21.90
2018-05-04T04:16:39.974Z,23.13
2018-05-04T04:19:11.089Z,23.33
2018-05-04T04:21:37.650Z,23.20
2018-05-04T04:24:04.302Z,25.47
2018-05-04T04:26:30.877Z,24.77
2018-05-04T04:28:59.717Z,23.30
2018-05-04T04:31:26.410Z,25.53
2018-05-04T04:33:53.182Z,25.10
2018-05-04T04:36:19.780Z,25.13
2018-05-04T04:38:47.549Z,25.37
2018-05-04T04:41:14.249Z,23.90
2018-05-04T04:43:40.833Z,23.10
2018-05-04T04:46:07.454Z,22.60
2018-05-04T04:48:35.115Z,22.77
2018-05-04T04:51:01.853Z,22.70
2018-05-04T04:53:28.610Z,22.57
2018-05-04T04:55:55.301Z,31.27
2018-05-04T04:58:24.953Z,22.53
2018-05-04T05:00:51.530Z,22.30
2018-05-04T05:03:18.189Z,23.43
2018-05-04T05:05:44.779Z,22.77
2018-05-04T05:08:12.621Z,22.47
2018-05-04T05:10:39.176Z,21.53
2018-05-04T05:13:05.737Z,22.50
2018-05-04T05:15:32.469Z,22.77
2018-05-04T05:17:59.095Z,21.90
2018-05-04T05:20:26.146Z,22.00
2018-05-04T05:22:52.790Z,22.43
2018-05-04T05:25:19.371Z,21.63
2018-05-04T05:27:46.040Z,20.93
2018-05-04T05:30:18.525Z,21.40
2018-05-04T05:32:45.085Z,20.90
2018-05-04T05:35:11.902Z,21.50
2018-05-04T05:37:38.859Z,20.87
2018-05-04T05:40:05.525Z,21.93
2018-05-04T05:42:32.486Z,21.83
2018-05-04T05:44:59.258Z,23.00
2018-05-04T05:47:26.001Z,23.63
2018-05-04T05:49:55.862Z,22.70
2018-05-04T05:52:23.261Z,22.03
2018-05-04T05:54:50.286Z,21.97
2018-05-04T05:57:16.982Z,20.83
2018-05-04T05:59:46.994Z,19.77
2018-05-04T06:02:13.670Z,20.17
2018-05-04T06:04:40.645Z,20.97
2018-05-04T06:07:07.213Z,20.60
2018-05-04T06:09:39.324Z,19.57
2018-05-04T06:12:05.996Z,20.00
2018-05-04T06:14:32.637Z,18.67
2018-05-04T06:16:59.312Z,19.80
2018-05-04T06:19:32.221Z,20.20
2018-05-04T06:21:58.965Z,19.67
2018-05-04T06:24:25.632Z,19.63
2018-05-04T06:26:52.366Z,18.50
2018-05-04T06:29:20.316Z,19.23
2018-05-04T06:31:47.015Z,19.13
2018-05-04T06:34:13.714Z,18.83
2018-05-04T06:36:40.373Z,20.43
2018-05-04T06:39:13.954Z,19.40
2018-05-04T06:41:40.590Z,19.90
2018-05-04T06:44:07.282Z,18.47
2018-05-04T06:46:34.061Z,18.47
2018-05-04T06:49:04.391Z,19.23
2018-05-04T06:51:31.053Z,19.47
2018-05-04T06:53:57.677Z,16.93
2018-05-04T06:56:24.335Z,19.77
2018-05-04T06:59:03.643Z,18.77
2018-05-04T07:01:30.390Z,18.67
2018-05-04T07:03:57.055Z,20.27
2018-05-04T07:06:23.604Z,20.47
2018-05-04T07:08:53.884Z,21.77
2018-05-04T07:11:20.941Z,21.87
2018-05-04T07:13:47.641Z,23.17
2018-05-04T07:16:14.284Z,22.00
2018-05-04T07:18:45.594Z,21.70
2018-05-04T07:21:12.537Z,21.77
2018-05-04T07:23:39.206Z,19.97
2018-05-04T07:26:05.894Z,19.93
2018-05-04T07:28:36.754Z,19.23
2018-05-04T07:31:03.400Z,20.30
2018-05-04T07:33:30.111Z,19.50
2018-05-04T07:35:56.900Z,19.50
2018-05-04T07:38:27.118Z,20.30
2018-05-04T07:40:53.744Z,19.27
2018-05-04T07:43:20.414Z,18.93
2018-05-04T07:45:47.006Z,18.47
2018-05-04T07:48:24.152Z,19.13
2018-05-04T07:50:50.754Z,16.43
2018-05-04T07:53:17.419Z,17.07
2018-05-04T07:55:44.158Z,17.13
2018-05-04T07:58:24.780Z,16.77
2018-05-04T08:00:51.485Z,17.53
2018-05-04T08:03:18.077Z,15.23
2018-05-04T08:05:44.729Z,15.00
2018-05-04T08:08:12.634Z,15.87
2018-05-04T08:10:39.362Z,15.00
2018-05-04T08:13:06.069Z,14.83
2018-05-04T08:15:32.743Z,14.90
2018-05-04T08:18:02.527Z,14.50
2018-05-04T08:20:29.957Z,15.60
2018-05-04T08:22:56.936Z,14.53
2018-05-04T08:25:23.677Z,13.97
2018-05-04T08:27:53.881Z,14.63
2018-05-04T08:30:20.482Z,13.67
2018-05-04T08:32:47.069Z,13.27
2018-05-04T08:35:13.839Z,13.20
2018-05-04T08:37:43.625Z,13.03
2018-05-04T08:40:10.647Z,12.97
2018-05-04T08:42:37.309Z,14.30
2018-05-04T08:45:09.906Z,12.63
2018-05-04T08:47:47.607Z,13.13
2018-05-04T08:50:14.204Z,12.47
2018-05-04T08:52:41.960Z,13.53
2018-05-04T08:55:08.756Z,12.87
2018-05-04T08:57:35.516Z,12.27
2018-05-04T09:00:02.138Z,12.33
2018-05-04T09:02:28.800Z,10.50
2018-05-04T09:04:55.425Z,11.37
2018-05-04T09:07:22.075Z,10.53
2018-05-04T09:09:48.705Z,10.40
2018-05-04T09:12:15.441Z,10.57
2018-05-04T09:14:42.135Z,9.70
2018-05-04T09:17:08.842Z,10.43
2018-05-04T09:19:35.572Z,9.43
2018-05-04T09:22:02.216Z,9.43
2018-05-04T09:24:28.853Z,9.53
2018-05-04T09:26:55.634Z,9.80
2018-05-04T09:29:23.643Z,10.03
2018-05-04T09:31:51.094Z,9.77
2018-05-04T09:34:18.075Z,9.10
2018-05-04T09:36:44.708Z,8.70
2018-05-04T09:39:14.538Z,8.23
2018-05-04T09:41:41.093Z,8.70
2018-05-04T09:44:07.797Z,7.50
2018-05-04T09:46:34.404Z,7.63
2018-05-04T09:49:01.139Z,7.37
2018-05-04T09:51:27.885Z,6.97
2018-05-04T09:53:54.529Z,6.73
2018-05-04T09:56:21.313Z,7.23
2018-05-04T09:58:59.013Z,7.07
2018-05-04T10:01:25.970Z,6.73
2018-05-04T10:03:52.897Z,6.70
2018-05-04T10:06:19.641Z,6.17
2018-05-04T10:08:50.337Z,6.50
2018-05-04T10:11:16.987Z,6.53
2018-05-04T10:13:43.753Z,6.00
2018-05-04T10:16:10.606Z,6.23
2018-05-04T10:18:37.482Z,6.53
2018-05-04T10:21:04.165Z,5.63
2018-05-04T10:23:31.289Z,6.33
2018-05-04T10:25:58.370Z,6.63
2018-05-04T10:28:26.154Z,6.60
2018-05-04T10:30:52.837Z,5.80
2018-05-04T10:33:19.777Z,5.80
2018-05-04T10:35:46.835Z,5.63
2018-05-04T10:38:16.878Z,6.80
2018-05-04T10:40:43.480Z,6.67
2018-05-04T10:43:10.233Z,6.27
2018-05-04T10:45:36.786Z,6.40
2018-05-04T10:48:06.684Z,6.13
2018-05-04T10:50:33.409Z,5.73
2018-05-04T10:53:00.283Z,6.40
2018-05-04T10:55:32.702Z,5.40
2018-05-04T10:58:02.781Z,5.90
2018-05-04T11:00:29.831Z,6.07
2018-05-04T11:02:56.497Z,6.03
2018-05-04T11:05:23.243Z,6.20
2018-05-04T11:07:49.729Z,5.77
2018-05-04T11:10:16.345Z,5.67
2018-05-04T11:12:43.196Z,5.93
2018-05-04T11:15:10.381Z,5.27
2018-05-04T11:17:44.811Z,5.73
2018-05-04T11:20:12.023Z,5.67
2018-05-04T11:22:38.671Z,5.67
2018-05-04T11:25:05.330Z,5.63
2018-05-04T11:27:42.284Z,5.73
2018-05-04T11:30:08.934Z,5.67
2018-05-04T11:32:35.667Z,5.60
2018-05-04T11:35:02.319Z,5.63
2018-05-04T11:37:33.908Z,5.47
2018-05-04T11:40:00.559Z,4.70
2018-05-04T11:42:27.189Z,5.43
2018-05-04T11:44:54.420Z,4.77
2018-05-04T11:47:25.011Z,5.20
2018-05-04T11:49:51.511Z,5.70
2018-05-04T11:52:18.185Z,5.50
2018-05-04T11:54:44.754Z,5.43
2018-05-04T11:57:15.609Z,5.47
2018-05-04T11:59:42.352Z,5.03
2018-05-04T12:02:08.930Z,5.53
2018-05-04T12:04:35.573Z,5.43
2018-05-04T12:07:02.243Z,5.43
2018-05-04T12:09:29.045Z,5.20
2018-05-04T12:11:55.597Z,4.73
2018-05-04T12:14:22.334Z,5.53
2018-05-04T12:16:49.750Z,5.67
2018-05-04T12:19:16.420Z,5.10
2018-05-04T12:21:42.901Z,4.70
2018-05-04T12:24:09.713Z,5.30
2018-05-04T12:26:36.702Z,4.67
2018-05-04T12:29:09.151Z,5.47
2018-05-04T12:31:36.445Z,5.40
2018-05-04T12:34:03.073Z,5.40
2018-05-04T12:36:29.702Z,5.10
2018-05-04T12:39:00.386Z,5.50
2018-05-04T12:41:26.990Z,5.87
2018-05-04T12:43:53.655Z,5.60
2018-05-04T12:46:20.704Z,5.77
2018-05-04T12:48:47.658Z,5.30
2018-05-04T12:51:14.179Z,4.80
2018-05-04T12:53:40.906Z,5.37
2018-05-04T12:56:07.725Z,6.13
2018-05-04T12:58:38.413Z,5.87
2018-05-04T13:01:05.147Z,5.60
2018-05-04T13:03:31.661Z,5.50
2018-05-04T13:05:58.343Z,5.68
2018-05-04T13:08:35.505Z,5.45
2018-05-04T13:11:02.082Z,5.35
2018-05-04T13:13:28.699Z,5.55
2018-05-04T13:15:55.431Z,5.43
2018-05-04T13:18:34.739Z,5.87
2018-05-04T13:21:01.325Z,5.22
2018-05-04T13:23:27.976Z,5.55
2018-05-04T13:25:54.576Z,5.30
2018-05-04T13:28:25.542Z,5.75
2018-05-04T13:30:52.180Z,5.57
2018-05-04T13:33:18.705Z,5.62
2018-05-04T13:35:45.737Z,5.55
2018-05-04T13:38:15.953Z,5.47
2018-05-04T13:40:42.646Z,5.75
2018-05-04T13:43:09.345Z,5.30
2018-05-04T13:45:36.120Z,5.90
2018-05-04T13:48:02.985Z,5.95
2018-05-04T13:50:29.690Z,6.40
2018-05-04T13:52:56.657Z,5.80
2018-05-04T13:55:23.267Z,5.65
2018-05-04T13:58:00.246Z,6.25
2018-05-04T14:00:26.926Z,5.72
2018-05-04T14:02:53.609Z,5.82
2018-05-04T14:05:21.025Z,6.18
2018-05-04T14:07:53.586Z,6.45
2018-05-04T14:10:20.125Z,6.00
2018-05-04T14:12:46.806Z,5.57
2018-05-04T14:15:13.692Z,5.93
2018-05-04T14:17:46.617Z,5.70
2018-05-04T14:20:13.334Z,6.20
2018-05-04T14:22:39.927Z,6.00
2018-05-04T14:25:06.508Z,6.10
2018-05-04T14:27:39.737Z,5.87
2018-05-04T14:30:06.846Z,6.03
2018-05-04T14:32:33.581Z,6.32
2018-05-04T14:35:00.228Z,6.32
2018-05-04T14:37:28.004Z,6.05
2018-05-04T14:39:54.660Z,5.95
2018-05-04T14:42:21.352Z,4.95
2018-05-04T14:44:48.067Z,6.15
2018-05-04T14:47:15.068Z,5.72
2018-05-04T14:49:41.820Z,6.93
2018-05-04T14:52:08.522Z,6.10
2018-05-04T14:54:35.248Z,6.53
2018-05-04T14:57:05.726Z,6.37
2018-05-04T14:59:32.614Z,6.30
2018-05-04T15:01:59.320Z,7.05
2018-05-04T15:04:26.766Z,6.78
2018-05-04T15:06:59.126Z,5.95
2018-05-04T15:09:25.706Z,5.43
2018-05-04T15:11:52.464Z,5.30
2018-05-04T15:14:18.957Z,7.50
2018-05-04T15:16:49.096Z,6.18
2018-05-04T15:19:16.111Z,4.93
2018-05-04T15:21:42.809Z,3.00
2018-05-04T15:24:09.523Z,3.70
2018-05-04T15:26:39.485Z,3.50
2018-05-04T15:29:07.206Z,3.22
2018-05-04T15:31:33.797Z,3.60
2018-05-04T15:34:00.334Z,3.00
2018-05-04T15:36:26.911Z,2.87
2018-05-04T15:38:53.480Z,3.97
2018-05-04T15:41:20.052Z,5.28
2018-05-04T15:43:46.672Z,5.57
2018-05-04T15:46:13.314Z,5.53
2018-05-04T15:48:49.222Z,5.00
2018-05-04T15:51:21.990Z,5.65
2018-05-04T15:53:48.697Z,5.15
2018-05-04T15:56:15.397Z,5.60
2018-05-04T15:58:45.134Z,6.12
2018-05-04T16:01:11.807Z,6.45
2018-05-04T16:03:38.511Z,7.28
2018-05-04T16:06:05.693Z,5.55
2018-05-04T16:08:32.404Z,6.12
2018-05-04T16:11:00.006Z,5.10
2018-05-04T16:13:26.604Z,5.47
2018-05-04T16:15:53.180Z,5.87
2018-05-04T16:18:21.417Z,5.30
2018-05-04T16:20:48.086Z,5.57
2018-05-04T16:23:14.750Z,6.13
2018-05-04T16:25:41.399Z,6.17
2018-05-04T16:28:18.720Z,6.60
2018-05-04T16:30:45.474Z,6.70
2018-05-04T16:33:12.104Z,5.93
2018-05-04T16:35:38.727Z,6.27
2018-05-04T16:38:09.362Z,6.40
2018-05-04T16:40:35.957Z,6.83
2018-05-04T16:43:02.973Z,6.73
2018-05-04T16:45:29.699Z,6.80
2018-05-04T16:48:05.582Z,6.63
2018-05-04T16:50:32.387Z,6.60
2018-05-04T16:52:58.979Z,6.27
2018-05-04T16:55:25.766Z,7.70
2018-05-04T16:58:02.834Z,6.47
2018-05-04T17:00:30.073Z,6.53
2018-05-04T17:02:56.708Z,6.50
2018-05-04T17:05:23.274Z,7.00
2018-05-04T17:07:50.916Z,6.70
2018-05-04T17:10:17.534Z,7.07
2018-05-04T17:12:44.685Z,6.23
2018-05-04T17:15:11.660Z,6.43
2018-05-04T17:17:41.565Z,6.70
2018-05-04T17:20:08.132Z,7.13
2018-05-04T17:22:34.734Z,6.27
2018-05-04T17:25:01.362Z,6.20
2018-05-04T17:27:34.285Z,7.10
2018-05-04T17:30:01.025Z,6.30
2018-05-04T17:32:27.632Z,6.13
2018-05-04T17:34:54.228Z,6.03
2018-05-04T17:37:24.676Z,6.07
2018-05-04T17:39:51.329Z,5.93
2018-05-04T17:42:18.897Z,6.43
2018-05-04T17:44:45.439Z,6.73
2018-05-04T17:47:15.820Z,6.50
2018-05-04T17:49:42.471Z,6.07
2018-05-04T17:52:09.217Z,6.33
2018-05-04T17:54:35.930Z,6.90
2018-05-04T17:57:12.820Z,7.63
2018-05-04T17:59:39.502Z,7.87
2018-05-04T18:02:06.273Z,6.40
2018-05-04T18:04:32.968Z,6.20
2018-05-04T18:07:03.562Z,5.67
2018-05-04T18:09:30.358Z,5.50
2018-05-04T18:11:56.863Z,5.17
2018-05-04T18:14:23.998Z,5.30
2018-05-04T18:16:53.976Z,4.97
2018-05-04T18:19:20.445Z,5.27
2018-05-04T18:21:47.098Z,4.93
2018-05-04T18:24:13.730Z,4.90
2018-05-04T18:26:44.370Z,4.80
2018-05-04T18:29:11.922Z,5.10
2018-05-04T18:31:38.491Z,5.90
2018-05-04T18:34:05.007Z,5.50
2018-05-04T18:36:31.851Z,5.60
2018-05-04T18:38:58.491Z,5.90
2018-05-04T18:41:25.127Z,6.50
2018-05-04T18:43:51.774Z,5.40
2018-05-04T18:46:24.438Z,5.07
2018-05-04T18:48:51.157Z,5.00
2018-05-04T18:51:17.796Z,5.40
2018-05-04T18:53:44.422Z,4.40
2018-05-04T18:56:11.283Z,4.27
2018-05-04T18:58:37.986Z,4.40
2018-05-04T19:01:04.737Z,5.20
2018-05-04T19:03:31.309Z,4.77
2018-05-04T19:06:01.581Z,5.93
2018-05-04T19:08:28.972Z,4.47
2018-05-04T19:10:56.255Z,4.87
2018-05-04T19:13:22.968Z,4.60
2018-05-04T19:15:49.618Z,5.03
2018-05-04T19:18:16.315Z,4.53
2018-05-04T19:20:42.943Z,4.27
2018-05-04T19:23:09.613Z,3.90
2018-05-04T19:25:36.328Z,4.43
2018-05-04T19:28:09.238Z,4.13
2018-05-04T19:30:35.861Z,3.80
2018-05-04T19:33:02.860Z,4.20
2018-05-04T19:35:29.631Z,4.13
2018-05-04T19:37:56.237Z,3.70
2018-05-04T19:40:22.890Z,4.03
2018-05-04T19:42:52.320Z,3.73
2018-05-04T19:45:19.624Z,3.60
2018-05-04T19:47:49.667Z,4.27
2018-05-04T19:50:16.241Z,3.30
2018-05-04T19:52:42.945Z,3.67
2018-05-04T19:55:10.957Z,4.00
2018-05-04T19:57:39.529Z,3.50
2018-05-04T20:00:06.207Z,3.80
2018-05-04T20:02:32.912Z,3.83
2018-05-04T20:04:59.637Z,3.97
2018-05-04T20:07:26.482Z,3.50
2018-05-04T20:09:53.173Z,3.27
2018-05-04T20:12:19.725Z,3.17
2018-05-04T20:14:46.387Z,3.53
2018-05-04T20:17:16.086Z,4.73
2018-05-04T20:19:42.730Z,3.40
2018-05-04T20:22:09.438Z,3.97
2018-05-04T20:24:36.099Z,3.57
2018-05-04T20:27:04.134Z,3.93
2018-05-04T20:29:30.934Z,3.57
2018-05-04T20:31:57.591Z,4.07
2018-05-04T20:34:24.150Z,3.87
2018-05-04T20:36:55.982Z,4.13
2018-05-04T20:39:22.749Z,3.53
2018-05-04T20:41:49.426Z,3.70
2018-05-04T20:44:17.621Z,3.23
2018-05-04T20:46:47.967Z,3.27
2018-05-04T20:49:14.682Z,3.57
2018-05-04T20:51:41.351Z,3.30
2018-05-04T20:54:08.076Z,4.00
2018-05-04T20:56:35.278Z,4.20
2018-05-04T20:59:02.083Z,3.83
2018-05-04T21:01:28.626Z,3.63
2018-05-04T21:03:55.260Z,3.70
2018-05-04T21:06:23.208Z,3.87
2018-05-04T21:08:49.825Z,3.50
2018-05-04T21:11:16.318Z,3.73
2018-05-04T21:13:43.266Z,4.10
2018-05-04T21:16:09.958Z,3.50
2018-05-04T21:18:36.600Z,3.60
2018-05-04T21:21:03.338Z,3.90
2018-05-04T21:23:30.029Z,3.93
2018-05-04T21:25:56.916Z,4.43
2018-05-04T21:28:23.614Z,3.97
2018-05-04T21:30:50.721Z,3.80
2018-05-04T21:33:17.350Z,4.17
2018-05-04T21:35:49.775Z,3.53
2018-05-04T21:38:16.816Z,3.70
2018-05-04T21:40:43.526Z,3.90
2018-05-04T21:43:10.920Z,3.53
2018-05-04T21:45:37.627Z,3.67
2018-05-04T21:48:04.263Z,3.20
2018-05-04T21:50:30.949Z,3.53
2018-05-04T21:52:57.629Z,3.63
2018-05-04T21:55:24.180Z,3.33
2018-05-04T21:57:50.899Z,3.53
2018-05-04T22:00:17.530Z,2.67
2018-05-04T22:02:44.252Z,3.17
2018-05-04T22:05:10.931Z,3.17
2018-05-04T22:07:42.748Z,3.10
2018-05-04T22:10:09.421Z,2.77
2018-05-04T22:12:36.046Z,3.00
2018-05-04T22:15:02.706Z,2.87
2018-05-04T22:17:32.561Z,3.40
2018-05-04T22:19:59.237Z,2.80
2018-05-04T22:22:26.189Z,2.80
2018-05-04T22:24:53.141Z,2.73
2018-05-04T22:27:20.844Z,2.60
2018-05-04T22:29:47.331Z,3.30
2018-05-04T22:32:13.986Z,2.93
2018-05-04T22:34:40.619Z,2.87
2018-05-04T22:37:13.281Z,2.70
2018-05-04T22:39:39.962Z,3.10
2018-05-04T22:42:07.893Z,3.40
2018-05-04T22:44:34.605Z,2.80
2018-05-04T22:47:02.184Z,2.77
2018-05-04T22:49:28.861Z,2.73
2018-05-04T22:51:55.570Z,2.73
2018-05-04T22:54:22.206Z,3.07
2018-05-04T22:56:53.145Z,2.90
2018-05-04T22:59:19.815Z,2.87
2018-05-04T23:01:46.529Z,2.40
2018-05-04T23:04:13.164Z,2.93
2018-05-04T23:06:40.924Z,2.53
2018-05-04T23:09:08.160Z,2.30
2018-05-04T23:11:34.745Z,2.67
2018-05-04T23:14:01.990Z,2.50
2018-05-04T23:16:29.604Z,2.40
2018-05-04T23:18:56.236Z,2.27
2018-05-04T23:21:22.956Z,2.70
2018-05-04T23:23:49.580Z,2.60
2018-05-04T23:26:22.093Z,2.60
2018-05-04T23:28:48.733Z,2.23
2018-05-04T23:31:15.386Z,2.40
2018-05-04T23:33:42.046Z,2.00
2018-05-04T23:36:12.089Z,2.30
2018-05-04T23:38:38.617Z,2.73
2018-05-04T23:41:05.358Z,2.83
2018-05-04T23:43:32.036Z,2.80
2018-05-04T23:46:02.673Z,2.80
2018-05-04T23:48:29.298Z,2.83
2018-05-04T23:50:55.932Z,2.57
2018-05-04T23:53:22.569Z,2.57
2018-05-04T23:55:53.154Z,2.70
2018-05-04T23:58:19.843Z,3.30
